Time;durP1;ratioP1;P1;durP2;ratioP2;P2;SDS_P1;SDS_P2;PMS_P1;PMS_P2;Temp;Humidity;BMP_temperature;BMP_pressure;BME280_temperature;BME280_humidity;BME280_pressure;Samples;Min_cycle;Max_cycle;Signal;HPM_P1;HPM_P2
2023/04/19 00:01:04;;;;;;;8.52;5.63;;;8.10;99.90;;;;;;5032725;28;20533;-80
2023/04/19 00:03:30;;;;;;;10.23;6.18;;;8.10;99.90;;;;;;5024606;28;20215;-81
2023/04/19 00:05:58;;;;;;;13.20;7.05;;;8.10;99.90;;;;;;5036881;28;20033;-80
2023/04/19 00:08:25;;;;;;;10.27;5.88;;;8.00;99.90;;;;;;5054683;28;20028;-80
2023/04/19 00:10:51;;;;;;;15.02;6.20;;;8.00;99.90;;;;;;5049954;28;20040;-80
2023/04/19 00:13:16;;;;;;;10.32;5.65;;;8.00;99.90;;;;;;5053652;28;20029;-80
2023/04/19 00:15:43;;;;;;;10.38;6.68;;;8.00;99.90;;;;;;5032342;28;20509;-80
2023/04/19 00:18:09;;;;;;;14.55;6.93;;;8.00;99.90;;;;;;5028282;28;20037;-80
2023/04/19 00:20:35;;;;;;;11.25;7.47;;;7.90;99.90;;;;;;5057406;28;20122;-80
2023/04/19 00:23:00;;;;;;;13.50;7.70;;;7.90;99.90;;;;;;5064024;28;20492;-80
2023/04/19 00:25:27;;;;;;;13.32;6.50;;;7.90;99.90;;;;;;5030677;28;20045;-80
2023/04/19 00:27:54;;;;;;;12.88;7.47;;;7.90;99.90;;;;;;5047625;28;20466;-84
2023/04/19 00:30:19;;;;;;;13.13;8.10;;;7.90;99.90;;;;;;5041633;28;20472;-80
2023/04/19 00:32:45;;;;;;;12.60;8.43;;;7.80;99.90;;;;;;5042943;28;20049;-80
2023/04/19 00:35:14;;;;;;;13.93;8.15;;;7.80;99.90;;;;;;5043825;28;20060;-81
2023/04/19 00:37:39;;;;;;;13.52;8.35;;;7.80;99.90;;;;;;5039993;28;20128;-80
2023/04/19 00:40:06;;;;;;;12.00;7.85;;;7.70;99.90;;;;;;5048143;28;20115;-81
2023/04/19 00:42:31;;;;;;;11.38;8.10;;;7.70;99.90;;;;;;5043737;28;20142;-80
2023/04/19 00:44:57;;;;;;;22.27;9.20;;;7.70;99.90;;;;;;5047656;28;20496;-81
2023/04/19 00:47:22;;;;;;;12.00;7.78;;;7.60;99.90;;;;;;5036912;28;20103;-81
2023/04/19 00:49:48;;;;;;;17.50;7.15;;;7.50;99.90;;;;;;5045862;28;20079;-80
2023/04/19 00:52:14;;;;;;;14.32;6.88;;;7.40;99.90;;;;;;5042263;28;20386;-80
2023/04/19 00:54:44;;;;;;;16.02;6.60;;;7.40;99.90;;;;;;5045128;28;20036;-82
2023/04/19 00:57:10;;;;;;;18.70;7.57;;;7.30;99.90;;;;;;5047303;28;20462;-80
2023/04/19 00:59:36;;;;;;;10.10;5.93;;;7.20;99.90;;;;;;5045297;28;20116;-80
2023/04/19 01:02:03;;;;;;;10.35;5.53;;;7.20;99.90;;;;;;5045596;28;20031;-80
2023/04/19 01:04:30;;;;;;;15.43;6.03;;;7.10;99.90;;;;;;5044536;28;20029;-80
2023/04/19 01:06:56;;;;;;;9.45;5.90;;;7.00;99.90;;;;;;5053035;28;20066;-81
2023/04/19 01:09:21;;;;;;;9.75;6.03;;;7.00;99.90;;;;;;5039901;28;20064;-80
2023/04/19 01:11:47;;;;;;;9.63;5.35;;;6.90;99.90;;;;;;5045550;28;20238;-80
2023/04/19 01:14:12;;;;;;;9.93;5.63;;;6.80;99.90;;;;;;5047132;28;20021;-80
2023/04/19 01:16:38;;;;;;;10.98;6.00;;;6.70;99.90;;;;;;5044636;28;20021;-81
2023/04/19 01:19:04;;;;;;;14.73;5.40;;;6.70;99.90;;;;;;5040555;28;20029;-80
2023/04/19 01:21:31;;;;;;;9.90;5.15;;;6.60;99.90;;;;;;5042037;28;20037;-80
2023/04/19 01:23:56;;;;;;;11.57;5.57;;;6.50;99.90;;;;;;5039029;28;20025;-80
2023/04/19 01:26:40;;;;;;;9.18;5.40;;;6.50;99.90;;;;;;5039640;28;20025;-80
2023/04/19 01:29:06;;;;;;;9.35;5.55;;;6.40;99.90;;;;;;5041424;28;20124;-80
2023/04/19 01:31:31;;;;;;;12.50;5.07;;;6.40;99.90;;;;;;5033172;28;20468;-80
2023/04/19 01:33:57;;;;;;;8.23;4.95;;;6.40;99.90;;;;;;5039979;28;20025;-80
2023/04/19 01:36:22;;;;;;;12.88;5.70;;;6.40;99.90;;;;;;5042507;28;20124;-80
2023/04/19 01:38:48;;;;;;;13.88;5.20;;;6.40;99.90;;;;;;5052458;28;20040;-80
2023/04/19 01:41:19;;;;;;;16.88;5.30;;;6.40;99.90;;;;;;5046159;28;20525;-80
2023/04/19 01:43:44;;;;;;;7.63;5.35;;;6.40;99.90;;;;;;5047009;28;20021;-80
2023/04/19 01:46:11;;;;;;;9.15;5.00;;;6.40;99.90;;;;;;5043763;28;20038;-81
2023/04/19 01:48:37;;;;;;;13.55;5.40;;;6.40;99.90;;;;;;5052210;28;20159;-81
2023/04/19 01:51:02;;;;;;;8.02;4.78;;;6.40;99.90;;;;;;5045021;28;20682;-80
2023/04/19 01:53:28;;;;;;;7.32;5.07;;;6.40;99.90;;;;;;5050622;28;20024;-80
2023/04/19 01:55:56;;;;;;;9.07;5.20;;;6.30;99.90;;;;;;5052409;28;20027;-83
2023/04/19 01:58:22;;;;;;;12.43;5.70;;;6.30;99.90;;;;;;5042831;28;20044;-79
2023/04/19 02:00:47;;;;;;;17.70;5.28;;;6.30;99.90;;;;;;5053491;28;20033;-80
2023/04/19 02:03:13;;;;;;;13.07;5.43;;;6.30;99.90;;;;;;5044053;28;20021;-80
2023/04/19 02:05:39;;;;;;;11.32;5.15;;;6.30;99.90;;;;;;5041739;28;20505;-79
2023/04/19 02:08:04;;;;;;;10.50;5.72;;;6.30;99.90;;;;;;5049661;28;20036;-79
2023/04/19 02:10:30;;;;;;;18.95;5.45;;;6.30;99.90;;;;;;5047803;28;20040;-80
2023/04/19 02:12:55;;;;;;;11.70;5.20;;;6.20;99.90;;;;;;5047048;28;20124;-80
2023/04/19 02:15:21;;;;;;;7.78;4.60;;;6.20;99.90;;;;;;5050489;28;20055;-80
2023/04/19 02:17:47;;;;;;;10.60;4.85;;;6.20;99.90;;;;;;5034582;28;20084;-80
2023/04/19 02:20:12;;;;;;;12.68;5.70;;;6.10;99.90;;;;;;5041011;28;20025;-80
2023/04/19 02:22:42;;;;;;;9.85;5.07;;;6.10;99.90;;;;;;5046487;28;20075;-81
2023/04/19 02:25:08;;;;;;;8.75;5.03;;;6.10;99.90;;;;;;5046362;28;20339;-80
2023/04/19 02:27:33;;;;;;;9.07;4.78;;;6.10;99.90;;;;;;5037384;28;20094;-80
2023/04/19 02:29:59;;;;;;;7.43;4.72;;;6.00;99.90;;;;;;5051166;28;20031;-79
2023/04/19 02:32:25;;;;;;;10.95;5.70;;;6.00;99.90;;;;;;5049269;28;20425;-80
2023/04/19 02:34:51;;;;;;;12.90;5.28;;;6.00;99.90;;;;;;5043960;28;20029;-80
2023/04/19 02:37:17;;;;;;;12.73;5.07;;;6.00;99.90;;;;;;5048730;28;20150;-80
2023/04/19 02:39:44;;;;;;;9.57;5.18;;;6.00;99.90;;;;;;5042628;28;20436;-80
2023/04/19 02:42:10;;;;;;;8.73;4.85;;;6.00;99.90;;;;;;5050407;28;20032;-81
2023/04/19 02:44:35;;;;;;;15.85;5.90;;;6.00;99.90;;;;;;5043340;28;20032;-80
2023/04/19 02:47:01;;;;;;;15.90;5.60;;;6.00;99.90;;;;;;5050391;28;20044;-80
2023/04/19 02:49:26;;;;;;;13.80;5.95;;;6.00;99.90;;;;;;5038007;28;20031;-80
2023/04/19 02:51:52;;;;;;;6.43;4.45;;;5.90;99.90;;;;;;5038240;28;20043;-80
2023/04/19 02:54:17;;;;;;;10.38;5.43;;;5.90;99.90;;;;;;5037912;28;20375;-80
2023/04/19 02:56:43;;;;;;;8.48;4.93;;;5.90;99.90;;;;;;5037703;28;20013;-80
2023/04/19 02:59:09;;;;;;;9.85;5.28;;;5.90;99.90;;;;;;5041548;28;20028;-80
2023/04/19 03:01:34;;;;;;;11.68;6.28;;;5.90;99.90;;;;;;5048676;28;20108;-80
2023/04/19 03:04:01;;;;;;;13.65;5.57;;;5.80;99.90;;;;;;5056473;28;20033;-81
2023/04/19 03:06:27;;;;;;;14.48;5.13;;;5.80;99.90;;;;;;5042244;28;20052;-80
2023/04/19 03:08:52;;;;;;;11.30;4.97;;;5.80;99.90;;;;;;5046310;28;20285;-80
2023/04/19 03:11:18;;;;;;;13.25;5.35;;;5.80;99.90;;;;;;5049835;28;20028;-80
2023/04/19 03:13:44;;;;;;;10.57;5.38;;;5.80;99.90;;;;;;5042509;28;20025;-80
2023/04/19 03:16:09;;;;;;;16.60;6.40;;;5.80;99.90;;;;;;5052655;28;20440;-83
2023/04/19 03:18:35;;;;;;;13.98;5.10;;;5.80;99.90;;;;;;5050029;28;20052;-80
2023/04/19 03:21:01;;;;;;;8.88;5.13;;;5.80;99.90;;;;;;5039059;28;20116;-80
2023/04/19 03:23:27;;;;;;;12.82;5.80;;;5.70;99.90;;;;;;5043109;28;20021;-80
2023/04/19 03:25:52;;;;;;;9.80;4.68;;;5.70;99.90;;;;;;5042363;28;20021;-80
2023/04/19 03:28:18;;;;;;;14.52;5.15;;;5.70;99.90;;;;;;5041438;28;20052;-80
2023/04/19 03:30:43;;;;;;;16.67;5.75;;;5.70;99.90;;;;;;5047918;28;20108;-81
2023/04/19 03:33:09;;;;;;;8.93;5.25;;;5.70;99.90;;;;;;5045601;28;20116;-80
2023/04/19 03:35:35;;;;;;;11.68;5.32;;;5.60;99.90;;;;;;5035842;28;20127;-80
2023/04/19 03:38:00;;;;;;;8.07;4.55;;;5.70;99.90;;;;;;5049423;28;20048;-80
2023/04/19 03:40:26;;;;;;;7.20;4.30;;;5.60;99.90;;;;;;5048422;28;20036;-81
2023/04/19 03:42:51;;;;;;;12.90;5.10;;;5.60;99.90;;;;;;5041489;28;20068;-80
2023/04/19 03:45:17;;;;;;;17.42;6.03;;;5.60;99.90;;;;;;5044937;28;20121;-80
2023/04/19 03:47:42;;;;;;;8.45;4.85;;;5.60;99.90;;;;;;5043547;28;20029;-81
2023/04/19 03:50:09;;;;;;;10.60;5.10;;;5.50;99.90;;;;;;5042416;28;20086;-80
2023/04/19 03:52:34;;;;;;;10.35;5.57;;;5.50;99.90;;;;;;5052608;28;20028;-80
2023/04/19 03:55:12;;;;;;;13.55;5.47;;;5.50;99.90;;;;;;5048075;28;20389;-80
2023/04/19 03:57:38;;;;;;;18.20;5.57;;;5.50;99.90;;;;;;5034321;28;20120;-81
2023/04/19 04:00:07;;;;;;;14.18;4.80;;;5.50;99.90;;;;;;5042265;28;22941;-80
2023/04/19 04:02:37;;;;;;;18.00;5.57;;;5.50;99.90;;;;;;5044660;28;20043;-80
2023/04/19 04:05:05;;;;;;;9.85;4.43;;;5.60;99.90;;;;;;5044399;28;20055;-80
2023/04/19 04:07:30;;;;;;;11.20;5.55;;;5.50;99.90;;;;;;5057666;28;20056;-80
2023/04/19 04:09:56;;;;;;;10.77;5.30;;;5.50;99.90;;;;;;5044719;28;20075;-80
2023/04/19 04:12:22;;;;;;;7.43;4.70;;;5.50;99.90;;;;;;5036297;28;20045;-80
2023/04/19 04:14:47;;;;;;;9.30;4.30;;;5.40;99.90;;;;;;5040822;28;20029;-80
2023/04/19 04:17:13;;;;;;;14.60;4.93;;;5.30;99.90;;;;;;5050459;28;20044;-80
2023/04/19 04:19:38;;;;;;;9.68;4.45;;;5.30;99.90;;;;;;5056676;28;20017;-80
2023/04/19 04:22:05;;;;;;;12.18;6.00;;;5.30;99.90;;;;;;5043204;28;20389;-82
2023/04/19 04:24:37;;;;;;;15.10;4.90;;;5.30;99.90;;;;;;5039298;28;20036;-80
2023/04/19 04:27:02;;;;;;;9.63;4.53;;;5.30;99.90;;;;;;5050179;28;20028;-80
2023/04/19 04:29:28;;;;;;;8.23;4.53;;;5.20;99.90;;;;;;5051617;28;20492;-81
2023/04/19 04:31:55;;;;;;;12.23;5.10;;;5.30;99.90;;;;;;5038591;28;20043;-81
2023/04/19 04:34:21;;;;;;;12.10;4.65;;;5.20;99.90;;;;;;5052866;28;20174;-80
2023/04/19 04:36:49;;;;;;;7.47;4.38;;;5.20;99.90;;;;;;5039893;28;20052;-80
2023/04/19 04:39:15;;;;;;;14.75;5.60;;;5.20;99.90;;;;;;5034026;28;20033;-81
2023/04/19 04:41:41;;;;;;;14.30;6.10;;;5.20;99.90;;;;;;5047592;28;20028;-81
2023/04/19 04:44:07;;;;;;;7.05;4.28;;;5.20;99.90;;;;;;5046267;28;20103;-80
2023/04/19 04:46:35;;;;;;;8.63;4.72;;;5.10;99.90;;;;;;5046457;28;20024;-81
2023/04/19 04:49:00;;;;;;;8.35;4.97;;;5.10;99.90;;;;;;5050345;28;20040;-80
2023/04/19 04:51:26;;;;;;;11.30;5.00;;;5.10;99.90;;;;;;5037084;28;20108;-80
2023/04/19 04:53:52;;;;;;;10.02;4.93;;;5.10;99.90;;;;;;5046266;28;20108;-80
2023/04/19 04:56:18;;;;;;;9.68;5.03;;;5.10;99.90;;;;;;5042341;28;20533;-81
2023/04/19 04:58:44;;;;;;;11.40;4.57;;;5.10;99.90;;;;;;5050076;28;20541;-80
2023/04/19 05:01:09;;;;;;;9.63;4.63;;;5.10;99.90;;;;;;5036434;28;20028;-80
2023/04/19 05:03:35;;;;;;;12.23;5.00;;;5.10;99.90;;;;;;5047439;28;20028;-80
2023/04/19 05:06:00;;;;;;;7.22;4.20;;;5.10;99.90;;;;;;5041401;28;20033;-80
2023/04/19 05:08:26;;;;;;;10.93;5.10;;;5.10;99.90;;;;;;5048720;28;20465;-81
2023/04/19 05:10:52;;;;;;;9.57;4.40;;;5.10;99.90;;;;;;5041469;28;20509;-80
2023/04/19 05:13:18;;;;;;;12.35;4.75;;;5.20;99.90;;;;;;5047048;28;20119;-80
2023/04/19 05:15:43;;;;;;;16.30;5.50;;;5.10;99.90;;;;;;5045701;28;20024;-80
2023/04/19 05:18:09;;;;;;;15.65;5.10;;;5.20;99.90;;;;;;5043490;28;20044;-80
2023/04/19 05:20:34;;;;;;;8.25;4.13;;;5.20;99.90;;;;;;5055923;28;20335;-80
2023/04/19 05:23:02;;;;;;;9.77;5.00;;;5.10;99.90;;;;;;5051333;28;20109;-80
2023/04/19 05:25:39;;;;;;;13.25;4.90;;;5.20;99.90;;;;;;5044516;28;20039;-81
2023/04/19 05:28:05;;;;;;;9.30;4.50;;;5.20;99.90;;;;;;5038459;28;20033;-80
2023/04/19 05:30:31;;;;;;;12.95;4.90;;;5.20;99.90;;;;;;5045586;28;20039;-80
2023/04/19 05:32:56;;;;;;;12.90;4.03;;;5.20;99.90;;;;;;5038933;28;20059;-81
2023/04/19 05:35:22;;;;;;;9.18;4.75;;;5.20;99.90;;;;;;5042966;28;20029;-81
2023/04/19 05:37:47;;;;;;;6.07;4.05;;;5.20;99.90;;;;;;5047084;28;20533;-81
2023/04/19 05:40:13;;;;;;;10.50;4.40;;;5.20;99.90;;;;;;5042833;28;20027;-80
2023/04/19 05:42:39;;;;;;;11.00;4.80;;;5.20;99.90;;;;;;5039303;28;20025;-82
2023/04/19 05:45:06;;;;;;;7.50;4.43;;;5.20;99.90;;;;;;5050594;28;20981;-80
2023/04/19 05:47:32;;;;;;;6.95;4.43;;;5.20;99.90;;;;;;5054856;28;20106;-81
2023/04/19 05:49:57;;;;;;;7.25;4.50;;;5.30;99.90;;;;;;5049350;28;20049;-81
2023/04/19 05:52:24;;;;;;;9.20;3.92;;;5.30;99.90;;;;;;5051637;28;20025;-80
2023/04/19 05:54:50;;;;;;;13.35;5.05;;;5.20;99.90;;;;;;5040465;28;20935;-80
2023/04/19 05:57:15;;;;;;;13.00;4.68;;;5.20;99.90;;;;;;5046329;28;20049;-80
2023/04/19 05:59:42;;;;;;;10.70;4.93;;;5.30;99.90;;;;;;5053933;28;20072;-82
2023/04/19 06:02:08;;;;;;;9.95;4.72;;;5.30;99.90;;;;;;5032542;28;20028;-81
2023/04/19 06:04:34;;;;;;;10.10;4.40;;;5.30;99.90;;;;;;5048736;28;20017;-80
2023/04/19 06:07:00;;;;;;;15.05;5.28;;;5.40;99.90;;;;;;5048916;28;20683;-81
2023/04/19 06:09:25;;;;;;;10.55;4.20;;;5.40;99.90;;;;;;5042078;28;20124;-81
2023/04/19 06:11:53;;;;;;;10.25;4.32;;;5.40;99.90;;;;;;5049436;28;20028;-80
2023/04/19 06:14:19;;;;;;;8.95;5.38;;;5.40;99.90;;;;;;5046374;28;20021;-82
2023/04/19 06:16:45;;;;;;;13.48;5.47;;;5.50;99.90;;;;;;5041673;28;20029;-81
2023/04/19 06:19:12;;;;;;;10.85;5.22;;;5.50;99.90;;;;;;5039752;28;20034;-83
2023/04/19 06:21:38;;;;;;;13.82;4.80;;;5.50;99.90;;;;;;5052079;28;20237;-80
2023/04/19 06:24:05;;;;;;;11.23;4.60;;;5.50;99.90;;;;;;5046640;28;20057;-82
2023/04/19 06:26:31;;;;;;;11.77;4.57;;;5.50;99.90;;;;;;5040684;28;20028;-81
2023/04/19 06:28:57;;;;;;;12.68;4.22;;;5.50;99.90;;;;;;5056422;28;20029;-82
2023/04/19 06:31:23;;;;;;;10.70;4.10;;;5.50;99.90;;;;;;5051511;28;20115;-81
2023/04/19 06:33:48;;;;;;;8.13;4.93;;;5.60;99.90;;;;;;5038145;28;20033;-81
2023/04/19 06:36:14;;;;;;;16.83;4.82;;;5.60;99.90;;;;;;5041177;28;20600;-81
2023/04/19 06:38:45;;;;;;;17.52;5.03;;;5.60;99.90;;;;;;5044635;28;20033;-81
2023/04/19 06:41:14;;;;;;;10.88;4.90;;;5.60;99.90;;;;;;5043186;28;20033;-82
2023/04/19 06:43:41;;;;;;;11.48;4.20;;;5.60;99.90;;;;;;5044088;28;20445;-81
2023/04/19 06:46:08;;;;;;;12.80;4.65;;;5.60;99.90;;;;;;5042290;28;20056;-81
2023/04/19 06:48:34;;;;;;;12.43;5.18;;;5.70;99.90;;;;;;5049992;28;20029;-81
2023/04/19 06:51:00;;;;;;;6.80;4.53;;;5.70;99.90;;;;;;5038849;28;20086;-81
2023/04/19 06:53:26;;;;;;;11.55;4.25;;;5.70;99.90;;;;;;5051031;28;20486;-80
2023/04/19 06:56:01;;;;;;;9.10;4.30;;;5.70;99.90;;;;;;5049273;28;20048;-80
2023/04/19 06:58:27;;;;;;;13.05;4.00;;;5.80;99.90;;;;;;5037099;28;20409;-81
2023/04/19 07:00:53;;;;;;;9.35;3.80;;;5.80;99.90;;;;;;5046061;28;20028;-81
2023/04/19 07:03:19;;;;;;;13.10;4.72;;;5.80;99.90;;;;;;5047106;28;20025;-82
2023/04/19 07:05:48;;;;;;;6.30;3.85;;;5.90;99.90;;;;;;5042385;28;20120;-82
2023/04/19 07:08:14;;;;;;;12.15;3.95;;;5.90;99.90;;;;;;5056287;28;20393;-83
2023/04/19 07:10:42;;;;;;;7.38;3.97;;;6.00;99.90;;;;;;5044749;28;20029;-80
2023/04/19 07:13:07;;;;;;;8.73;4.22;;;6.10;99.90;;;;;;5049926;28;20021;-81
2023/04/19 07:15:34;;;;;;;10.45;4.65;;;6.10;99.90;;;;;;5041872;28;20032;-82
2023/04/19 07:17:59;;;;;;;13.90;4.35;;;6.10;99.90;;;;;;5033916;28;20044;-81
2023/04/19 07:20:25;;;;;;;9.15;4.30;;;6.10;99.90;;;;;;5037821;28;20513;-81
2023/04/19 07:22:50;;;;;;;11.20;4.65;;;6.10;99.90;;;;;;5045336;28;20033;-83
2023/04/19 07:25:16;;;;;;;7.40;4.00;;;6.10;99.90;;;;;;5044619;28;20021;-82
2023/04/19 07:27:42;;;;;;;6.05;3.75;;;6.20;99.90;;;;;;5045179;28;20454;-82
2023/04/19 07:30:08;;;;;;;9.63;4.00;;;6.20;99.90;;;;;;5045098;28;20031;-80
2023/04/19 07:32:33;;;;;;;13.57;4.25;;;6.20;99.90;;;;;;5046550;28;20074;-82
2023/04/19 07:34:59;;;;;;;13.88;4.70;;;6.30;99.90;;;;;;5042159;28;20029;-80
2023/04/19 07:37:24;;;;;;;5.97;3.67;;;6.30;99.90;;;;;;5038811;28;20056;-81
2023/04/19 07:39:50;;;;;;;7.32;4.13;;;6.30;99.90;;;;;;5045763;28;20044;-81
2023/04/19 07:42:15;;;;;;;8.90;4.03;;;6.40;99.90;;;;;;5040517;28;20029;-82
2023/04/19 07:44:41;;;;;;;7.38;4.07;;;6.40;99.90;;;;;;5039136;28;20025;-84
2023/04/19 07:47:06;;;;;;;7.60;4.22;;;6.40;99.90;;;;;;5041977;28;20037;-81
2023/04/19 07:49:33;;;;;;;9.68;3.35;;;6.50;99.90;;;;;;5043869;28;20481;-81
2023/04/19 07:52:01;;;;;;;7.22;4.03;;;6.50;99.90;;;;;;5040243;28;20028;-81
2023/04/19 07:54:30;;;;;;;10.60;4.72;;;6.50;99.90;;;;;;5046110;28;20021;-86
2023/04/19 07:56:57;;;;;;;5.03;3.55;;;6.50;99.90;;;;;;5059588;28;20028;-80
2023/04/19 07:59:23;;;;;;;7.45;4.25;;;6.60;99.90;;;;;;5054344;28;20122;-86
2023/04/19 08:01:49;;;;;;;9.45;4.10;;;6.70;99.90;;;;;;5055046;28;20029;-81
2023/04/19 08:04:16;;;;;;;8.35;4.35;;;6.70;99.90;;;;;;5051662;28;20036;-85
2023/04/19 08:06:42;;;;;;;9.20;4.13;;;6.80;99.90;;;;;;5051708;28;20027;-81
2023/04/19 08:09:08;;;;;;;10.57;4.28;;;6.90;99.90;;;;;;5051173;28;20107;-80
2023/04/19 08:11:33;;;;;;;9.70;3.92;;;6.90;99.90;;;;;;5053263;28;20083;-88
2023/04/19 08:13:59;;;;;;;8.00;4.47;;;6.90;99.90;;;;;;5048659;28;20032;-80
2023/04/19 08:16:24;;;;;;;8.23;4.90;;;6.90;99.90;;;;;;5042236;28;20478;-81
2023/04/19 08:18:51;;;;;;;10.77;4.63;;;7.00;99.90;;;;;;5049877;28;20452;-79
2023/04/19 08:21:17;;;;;;;10.30;4.60;;;7.10;99.90;;;;;;5050802;28;20087;-80
2023/04/19 08:23:42;;;;;;;7.72;3.85;;;7.10;99.90;;;;;;5048458;28;20025;-80
2023/04/19 08:26:09;;;;;;;5.78;4.15;;;7.20;99.90;;;;;;5048828;28;20029;-85
2023/04/19 08:28:35;;;;;;;9.55;4.07;;;7.10;99.90;;;;;;5052447;28;20105;-82
2023/04/19 08:31:06;;;;;;;13.50;4.72;;;7.10;99.90;;;;;;5054947;28;20151;-80
2023/04/19 08:33:31;;;;;;;8.30;3.75;;;7.10;99.90;;;;;;5059051;28;20033;-81
2023/04/19 08:35:57;;;;;;;13.98;5.15;;;7.10;99.90;;;;;;5046492;28;20028;-81
2023/04/19 08:38:25;;;;;;;11.90;5.03;;;7.20;99.90;;;;;;5047012;28;20051;-80
2023/04/19 08:40:53;;;;;;;11.45;4.93;;;7.30;99.90;;;;;;5046730;28;20474;-80
2023/04/19 08:43:20;;;;;;;10.60;4.50;;;7.30;99.90;;;;;;5048327;28;20037;-80
2023/04/19 08:45:48;;;;;;;9.55;4.20;;;7.40;99.90;;;;;;5051519;28;20036;-82
2023/04/19 08:48:15;;;;;;;9.63;4.28;;;7.50;99.90;;;;;;5053841;28;20028;-82
2023/04/19 08:50:42;;;;;;;9.55;4.45;;;7.50;99.90;;;;;;5059577;28;20115;-80
2023/04/19 08:53:10;;;;;;;12.25;4.32;;;7.60;99.90;;;;;;5044874;28;20029;-80
2023/04/19 08:55:41;;;;;;;10.25;5.97;;;7.60;99.90;;;;;;5048271;28;20556;-85
2023/04/19 08:58:06;;;;;;;6.05;4.15;;;7.70;99.90;;;;;;5059922;28;20094;-80
2023/04/19 09:00:35;;;;;;;12.15;4.53;;;7.70;99.90;;;;;;5067368;28;20029;-80
2023/04/19 09:03:00;;;;;;;7.93;4.60;;;7.80;99.90;;;;;;5061734;28;20027;-80
2023/04/19 09:05:26;;;;;;;11.23;4.70;;;7.80;99.90;;;;;;5056139;28;20032;-81
2023/04/19 09:07:51;;;;;;;6.90;4.30;;;7.90;99.90;;;;;;5051764;28;20028;-83
2023/04/19 09:10:19;;;;;;;9.18;4.05;;;7.90;99.90;;;;;;5047585;28;20020;-79
2023/04/19 09:13:04;;;;;;;8.50;5.15;;;8.00;99.90;;;;;;5047596;28;20029;-81
2023/04/19 09:15:43;;;;;;;11.23;5.37;;;8.00;99.90;;;;;;5045908;28;20017;-80
2023/04/19 09:18:10;;;;;;;9.05;5.03;;;8.10;99.90;;;;;;5054194;28;20116;-80
2023/04/19 09:20:40;;;;;;;9.68;4.25;;;8.20;99.90;;;;;;5058592;28;20024;-82
2023/04/19 09:23:11;;;;;;;8.57;3.97;;;8.20;99.90;;;;;;5050243;28;20036;-82
2023/04/19 09:25:38;;;;;;;13.32;4.18;;;8.30;99.90;;;;;;5050622;28;20029;-81
2023/04/19 09:28:13;;;;;;;8.82;3.92;;;8.40;99.90;;;;;;5055968;28;20033;-80
2023/04/19 09:30:40;;;;;;;9.90;4.68;;;8.40;99.90;;;;;;5044989;28;20029;-82
2023/04/19 09:33:06;;;;;;;7.50;4.30;;;8.40;99.90;;;;;;5038754;28;20477;-81
2023/04/19 09:35:48;;;;;;;10.40;4.40;;;8.50;99.90;;;;;;5042761;28;20095;-86
2023/04/19 09:38:15;;;;;;;13.45;4.55;;;8.50;99.90;;;;;;5037354;28;20099;-82
2023/04/19 09:40:41;;;;;;;6.00;3.90;;;8.60;99.90;;;;;;5042083;28;20123;-85
2023/04/19 09:43:07;;;;;;;8.98;4.75;;;8.70;99.90;;;;;;5035289;28;20021;-84
2023/04/19 09:45:46;;;;;;;8.23;4.72;;;8.70;99.90;;;;;;5045113;28;20087;-81
2023/04/19 09:48:17;;;;;;;8.45;3.95;;;8.80;99.90;;;;;;5050187;28;20021;-81
2023/04/19 09:50:57;;;;;;;9.85;3.90;;;8.80;99.90;;;;;;5052944;28;20040;-80
2023/04/19 09:53:24;;;;;;;14.80;3.92;;;8.90;99.90;;;;;;5055697;28;20295;-90
2023/04/19 09:55:51;;;;;;;10.95;4.00;;;9.00;99.90;;;;;;5055811;28;20079;-79
2023/04/19 09:58:18;;;;;;;11.95;4.32;;;9.00;99.90;;;;;;5038737;28;20498;-85
2023/04/19 10:00:46;;;;;;;7.63;3.55;;;9.10;99.90;;;;;;5045610;28;20413;-80
2023/04/19 10:03:15;;;;;;;7.15;3.58;;;9.00;99.90;;;;;;5038289;28;20175;-81
2023/04/19 10:05:42;;;;;;;9.18;4.00;;;9.00;99.90;;;;;;5047507;28;20128;-89
2023/04/19 10:08:09;;;;;;;8.55;3.70;;;9.10;99.90;;;;;;5054313;28;20029;-80
2023/04/19 10:10:36;;;;;;;6.65;3.78;;;9.20;99.90;;;;;;5059378;28;20077;-83
2023/04/19 10:13:03;;;;;;;6.00;3.72;;;9.20;99.90;;;;;;5055097;28;20029;-85
2023/04/19 10:15:30;;;;;;;11.35;4.00;;;9.30;99.90;;;;;;5043280;28;20318;-82
2023/04/19 10:17:56;;;;;;;12.93;4.75;;;9.30;99.90;;;;;;5044706;28;20040;-86
2023/04/19 10:20:52;;;;;;;5.78;3.45;;;9.30;99.90;;;;;;5039461;28;20029;-81
2023/04/19 10:23:19;;;;;;;;;;;9.30;99.90;;;;;;5043397;28;20089;-83
2023/04/19 10:25:45;;;;;;;;;;;9.40;99.90;;;;;;5043895;28;19941;-85
2023/04/19 10:28:10;;;;;;;5.78;3.58;;;9.40;99.90;;;;;;5044909;28;19909;-80
2023/04/19 10:30:56;;;;;;;8.45;4.35;;;9.50;99.90;;;;;;5049562;28;20021;-84
2023/04/19 10:33:26;;;;;;;9.40;4.27;;;9.50;99.90;;;;;;5046900;28;20025;-82
2023/04/19 10:35:55;;;;;;;11.90;4.32;;;9.50;99.90;;;;;;5050228;28;20436;-80
2023/04/19 10:38:48;;;;;;;11.82;4.07;;;9.60;99.90;;;;;;5045777;28;20083;-80
2023/04/19 10:41:15;;;;;;;9.48;4.75;;;9.60;99.90;;;;;;5046264;28;20047;-81
2023/04/19 10:43:54;;;;;;;7.80;4.15;;;9.60;99.90;;;;;;5045786;28;20104;-81
2023/04/19 10:46:20;;;;;;;7.57;4.07;;;9.60;99.90;;;;;;5043503;28;20107;-80
2023/04/19 10:49:01;;;;;;;13.50;3.92;;;9.60;99.90;;;;;;5042639;28;20131;-82
2023/04/19 10:51:35;;;;;;;10.60;4.05;;;9.60;99.90;;;;;;5043015;28;20100;-80
2023/04/19 10:54:27;;;;;;;15.60;4.32;;;9.70;99.90;;;;;;5044080;28;20050;-82
2023/04/19 10:57:05;;;;;;;8.63;3.75;;;9.80;99.90;;;;;;5053263;28;20028;-81
2023/04/19 10:59:39;;;;;;;6.82;3.83;;;9.90;99.90;;;;;;5046336;28;20035;-85
2023/04/19 11:02:23;;;;;;;8.43;4.32;;;9.90;99.90;;;;;;5055222;28;20059;-81
2023/04/19 11:04:51;;;;;;;8.38;3.75;;;10.00;99.90;;;;;;5043840;28;20055;-81
2023/04/19 11:07:19;;;;;;;6.13;3.58;;;10.00;99.90;;;;;;5056027;28;20025;-80
2023/04/19 11:09:46;;;;;;;10.27;4.07;;;10.00;99.90;;;;;;5050454;28;20116;-81
2023/04/19 11:12:14;;;;;;;6.47;3.83;;;10.00;99.90;;;;;;5051546;28;20032;-81
2023/04/19 11:14:45;;;;;;;22.10;4.30;;;9.90;99.90;;;;;;5050709;28;20050;-81
2023/04/19 11:17:29;;;;;;;14.50;4.00;;;9.90;99.90;;;;;;5048699;28;20033;-80
2023/04/19 11:19:57;;;;;;;8.55;3.80;;;9.90;99.90;;;;;;5049332;28;20384;-80
2023/04/19 11:22:42;;;;;;;12.98;4.10;;;9.80;99.90;;;;;;5044036;28;20433;-83
2023/04/19 11:25:32;;;;;;;9.80;4.00;;;9.80;99.90;;;;;;5041269;28;20029;-79
2023/04/19 11:27:59;;;;;;;10.38;3.92;;;9.80;99.90;;;;;;5039741;28;20032;-84
2023/04/19 11:30:29;;;;;;;10.13;3.40;;;9.80;99.90;;;;;;5048878;28;20041;-81
2023/04/19 11:32:56;;;;;;;8.80;2.85;;;9.80;99.90;;;;;;5042491;28;20478;-83
2023/04/19 11:35:27;;;;;;;8.02;3.53;;;9.80;99.90;;;;;;5048955;28;20116;-81
2023/04/19 11:37:55;;;;;;;9.05;3.60;;;9.90;99.90;;;;;;5052605;28;20053;-83
2023/04/19 11:40:22;;;;;;;7.70;3.30;;;10.00;99.90;;;;;;5053315;28;20053;-80
2023/04/19 11:42:54;;;;;;;5.28;3.28;;;10.10;99.90;;;;;;5041661;28;20052;-83
2023/04/19 11:45:25;;;;;;;9.02;3.60;;;10.10;99.90;;;;;;5052034;28;20496;-84
2023/04/19 11:47:51;;;;;;;20.25;5.05;;;10.10;99.90;;;;;;5044386;28;20383;-84
2023/04/19 11:50:41;;;;;;;8.70;2.92;;;10.00;99.90;;;;;;5054747;28;20025;-80
2023/04/19 11:53:14;;;;;;;7.50;2.85;;;10.00;99.90;;;;;;5044817;28;20087;-86
2023/04/19 11:55:42;;;;;;;8.98;3.55;;;10.10;99.90;;;;;;5045132;28;20020;-84
2023/04/19 11:58:08;;;;;;;10.18;2.72;;;10.30;99.90;;;;;;5041423;28;20126;-86
2023/04/19 12:00:34;;;;;;;11.07;3.08;;;10.30;98.70;;;;;;5043743;28;20048;-87
2023/04/19 12:03:00;;;;;;;6.20;2.67;;;10.50;98.50;;;;;;5044565;28;20101;-79
2023/04/19 12:05:26;;;;;;;6.28;2.90;;;10.60;96.30;;;;;;5042960;28;20428;-81
2023/04/19 12:08:03;;;;;;;9.13;2.80;;;10.60;94.90;;;;;;5043663;28;20044;-78
2023/04/19 12:10:30;;;;;;;4.90;3.28;;;10.60;94.80;;;;;;5053331;28;20025;-79
2023/04/19 12:12:56;;;;;;;8.20;3.95;;;10.70;98.50;;;;;;5046683;28;20504;-80
2023/04/19 12:15:22;;;;;;;6.47;3.03;;;10.80;96.70;;;;;;5042804;28;20021;-80
2023/04/19 12:17:58;;;;;;;5.95;3.08;;;10.90;99.90;;;;;;5050829;28;20048;-81
2023/04/19 12:20:31;;;;;;;13.10;3.80;;;11.00;97.20;;;;;;5050892;28;20039;-86
2023/04/19 12:22:57;;;;;;;7.63;3.65;;;11.20;99.10;;;;;;5052178;28;20251;-82
2023/04/19 12:25:31;;;;;;;7.22;4.18;;;11.20;98.60;;;;;;5051059;28;20121;-81
2023/04/19 12:27:57;;;;;;;15.43;4.28;;;11.30;98.80;;;;;;5042080;28;20032;-81
2023/04/19 12:30:22;;;;;;;13.25;3.95;;;11.20;96.60;;;;;;5064348;28;20044;-88
2023/04/19 12:32:50;;;;;;;8.30;3.85;;;11.20;99.90;;;;;;5057101;28;20465;-83
2023/04/19 12:35:16;;;;;;;8.98;4.07;;;11.10;99.90;;;;;;5061443;28;20021;-79
2023/04/19 12:37:42;;;;;;;8.32;4.35;;;11.00;99.90;;;;;;5053981;28;20505;-82
2023/04/19 12:40:09;;;;;;;12.38;4.88;;;10.90;99.90;;;;;;5055359;28;20029;-82
2023/04/19 12:42:34;;;;;;;10.35;4.25;;;10.80;99.90;;;;;;5056648;28;20024;-84
2023/04/19 12:45:00;;;;;;;10.52;3.72;;;10.80;99.90;;;;;;5043409;28;20030;-79
2023/04/19 12:47:26;;;;;;;5.63;3.47;;;10.90;99.90;;;;;;5055473;28;20456;-83
2023/04/19 12:49:56;;;;;;;8.25;4.32;;;11.00;99.90;;;;;;5049092;28;20041;-82
2023/04/19 12:52:22;;;;;;;10.93;4.47;;;11.00;99.90;;;;;;5059391;28;20100;-80